Etusivu
METAR-TAF:

METAR-TAF

Lentoasemat :

Calgary, Alberta, Kanada

Calgaryn kansainvälinen lentoasema

Leveyspiiri: 51-07N, Pituuspiiri: 114-01W, korkeus merenpinnasta: 1077 m

Tämänhetkinen sää

Tämä raportti tehtiin 35 minuuttia sitten, kello 11.00 UTC
Tuuli 2 kn pohjoisesta/koillisesta
Lämpötila -5°C
Kosteus 63%
Ilmanpaine 1029 hPa
Näkyvyys: 24.1 km
Muutamia pilviä 18000 ft:n korkeudessa

METAR: CYYC 111100Z 03002KT 15SM FEW180 M05/M11 A3038 RMK AS1 SLP329

Aika: 04:35 (11:35 UTC)

Sääennuste

Tämä raportti tehtiin 2 tuntia ja 56 minuuttia sitten, kello 08.39 UTC
Ennuste voimassa 11. päivästä klo 09 UTC - 12. päivään klo 06 UTC
Tuuli 3 kn eri suunnista
Näkyvyys: 10 km
selkeää
Tulossa
11. päivästä klo 12 UTC - 11. päivään klo 14 UTC
Tuuli 6 kn lännestä/lounaasta

TAF: CYYC 110839Z 1109/1206 VRB03KT P6SM SKC BECMG 1112/1114 25006KT RMK NXT FCST BY 111200Z

Säähavainnot ja -ennusteet yli 4000 lentoasemalta (METAR- ja TAF-raportit).

Käytössä olevat sääasemat on merkitty karttaan keltaisilla ja punaisilla pisteillä.

Aseta hiiri pisteen päälle nähdäksesi sääaseman nimen.

Klikkaa sitten nähdäksesi säähavainnot ja -ennusteet.

Kartan vaihtaminen: klikkaa mustalla rastilla varustettuja vihreitä pisteitä, niin voit zoomata sisään; viivalla varustettua vihreää pistettä, niin voit zoomata ulos tai vihreitä nuolia, niin pääset viereisille kartoille.


METAR-TAF: